Time,TemperatureF,DewpointF,PressureIn,WindDirection,WindDirectionDegrees,WindSpeedMPH,WindSpeedGustMPH,Humidity,HourlyPrecipIn,Conditions,Clouds,dailyrainin,SoftwareType,DateUTC
2013-05-16 00:03:00,55.2,46.7,29.91,ESE,112,0.0,3.6,73,0.00,,,0.00,VWS V14.01,2013-05-16 07:03:00,
2013-05-16 00:08:00,55.2,46.7,29.91,SSW,202,4.0,5.8,73,0.00,,,0.00,VWS V14.01,2013-05-16 07:08:00,
2013-05-16 00:13:00,55.2,47.1,29.91,South,180,2.7,5.8,74,0.00,,,0.00,VWS V14.01,2013-05-16 07:13:00,
2013-05-16 00:18:00,55.0,46.9,29.91,SW,225,3.1,3.1,74,0.00,,,0.00,VWS V14.01,2013-05-16 07:18:00,
2013-05-16 00:23:00,55.0,46.9,29.91,South,180,3.1,3.6,74,0.00,,,0.00,VWS V14.01,2013-05-16 07:23:00,
2013-05-16 00:28:00,55.0,47.3,29.91,NE,45,0.0,0.0,75,0.00,,,0.00,VWS V14.01,2013-05-16 07:28:00,
2013-05-16 00:33:00,55.0,47.3,29.91,South,180,4.0,4.0,75,0.00,,,0.00,VWS V14.01,2013-05-16 07:33:00,
2013-05-16 00:38:00,55.0,47.3,29.91,SSW,202,0.0,4.0,75,0.00,,,0.00,VWS V14.01,2013-05-16 07:38:00,
2013-05-16 00:44:00,55.2,47.5,29.91,South,180,0.0,0.0,75,0.00,,,0.00,VWS V14.01,2013-05-16 07:44:00,
2013-05-16 00:49:00,55.4,47.3,29.91,SSW,202,0.0,2.7,74,0.00,,,0.00,VWS V14.01,2013-05-16 07:49:00,
2013-05-16 00:54:00,55.6,47.4,29.91,SE,135,0.0,0.0,74,0.00,,,0.00,VWS V14.01,2013-05-16 07:54:00,
2013-05-16 00:59:00,55.6,47.1,29.91,West,270,0.0,3.1,73,0.00,,,0.00,VWS V14.01,2013-05-16 07:59:00,
2013-05-16 01:04:00,55.6,47.1,29.91,SSE,158,3.1,3.1,73,0.00,,,0.00,VWS V14.01,2013-05-16 08:04:00,
2013-05-16 01:09:00,55.6,47.1,29.91,South,180,4.0,4.9,73,0.00,,,0.00,VWS V14.01,2013-05-16 08:09:00,
2013-05-16 01:15:00,55.6,47.1,29.91,SSW,202,2.7,4.0,73,0.00,,,0.00,VWS V14.01,2013-05-16 08:15:00,
2013-05-16 01:20:00,55.6,47.1,29.91,SSE,158,0.0,2.7,73,0.00,,,0.00,VWS V14.01,2013-05-16 08:20:00,
2013-05-16 01:25:00,55.4,46.9,29.91,SSW,202,4.0,5.4,73,0.00,,,0.00,VWS V14.01,2013-05-16 08:25:00,
2013-05-16 01:30:00,55.4,47.3,29.91,SSW,202,0.0,5.8,74,0.00,,,0.00,VWS V14.01,2013-05-16 08:30:00,
2013-05-16 01:35:00,55.2,47.5,29.91,SSE,158,4.9,4.9,75,0.00,,,0.00,VWS V14.01,2013-05-16 08:35:00,
2013-05-16 01:41:00,55.0,47.3,29.91,SE,135,0.0,2.2,75,0.00,,,0.00,VWS V14.01,2013-05-16 08:41:00,
2013-05-16 01:46:00,54.9,47.5,29.91,South,180,5.8,5.8,76,0.00,,,0.00,VWS V14.01,2013-05-16 08:46:00,
2013-05-16 01:51:00,54.9,47.8,29.91,SSW,202,4.9,4.9,77,0.00,,,0.00,VWS V14.01,2013-05-16 08:51:00,
2013-05-16 01:56:00,54.9,47.8,29.91,ESE,112,0.0,0.0,77,0.00,,,0.00,VWS V14.01,2013-05-16 08:56:00,
2013-05-16 02:01:00,54.9,48.1,29.91,SSW,202,4.9,4.9,78,0.00,,,0.00,VWS V14.01,2013-05-16 09:01:00,
2013-05-16 02:06:00,54.7,48.0,29.91,SSW,202,3.6,5.8,78,0.00,,,0.00,VWS V14.01,2013-05-16 09:06:00,
2013-05-16 02:12:00,54.7,48.0,29.91,ESE,112,5.8,5.8,78,0.00,,,0.00,VWS V14.01,2013-05-16 09:12:00,
2013-05-16 02:17:00,54.7,48.3,29.91,South,180,4.0,5.4,79,0.00,,,0.00,VWS V14.01,2013-05-16 09:17:00,
2013-05-16 02:22:00,54.7,48.3,29.91,NNW,338,3.1,6.3,79,0.00,,,0.00,VWS V14.01,2013-05-16 09:22:00,
2013-05-16 02:27:00,54.7,48.3,29.91,SSW,202,3.6,3.6,79,0.00,,,0.00,VWS V14.01,2013-05-16 09:27:00,
2013-05-16 02:32:00,54.7,48.6,29.91,NNE,22,3.6,3.6,80,0.00,,,0.00,VWS V14.01,2013-05-16 09:32:00,
2013-05-16 02:37:00,54.7,48.6,29.91,WSW,248,3.1,3.1,80,0.00,,,0.00,VWS V14.01,2013-05-16 09:37:00,
2013-05-16 02:42:00,54.7,48.6,29.88,NNW,338,3.1,3.1,80,0.00,,,0.00,VWS V14.01,2013-05-16 09:42:00,
2013-05-16 02:47:00,54.7,48.6,29.88,ESE,112,0.0,0.0,80,0.00,,,0.00,VWS V14.01,2013-05-16 09:47:00,
2013-05-16 02:53:00,54.7,48.6,29.88,WSW,248,5.4,5.4,80,0.00,,,0.00,VWS V14.01,2013-05-16 09:53:00,
2013-05-16 02:58:00,54.5,48.8,29.88,SSW,202,3.6,6.3,81,0.00,,,0.00,VWS V14.01,2013-05-16 09:58:00,
2013-05-16 03:03:00,54.5,48.8,29.88,East,90,2.7,6.3,81,0.00,,,0.00,VWS V14.01,2013-05-16 10:03:00,
2013-05-16 03:08:00,54.5,48.8,29.88,SSW,202,4.0,4.5,81,0.00,,,0.00,VWS V14.01,2013-05-16 10:08:00,
2013-05-16 03:13:00,54.5,48.8,29.88,SSE,158,0.0,4.9,81,0.00,,,0.00,VWS V14.01,2013-05-16 10:13:00,
2013-05-16 03:18:00,54.5,49.1,29.88,WSW,248,0.0,2.7,82,0.00,,,0.00,VWS V14.01,2013-05-16 10:18:00,
2013-05-16 03:24:00,54.5,49.1,29.88,SSW,202,0.0,3.1,82,0.00,,,0.00,VWS V14.01,2013-05-16 10:24:00,
2013-05-16 03:29:00,54.5,49.1,29.88,SSE,158,4.0,4.9,82,0.00,,,0.00,VWS V14.01,2013-05-16 10:29:00,
2013-05-16 03:34:00,54.7,49.3,29.88,SSW,202,0.0,2.7,82,0.00,,,0.00,VWS V14.01,2013-05-16 10:34:00,
2013-05-16 03:39:00,54.5,48.8,29.88,South,180,2.2,3.6,81,0.00,,,0.00,VWS V14.01,2013-05-16 10:39:00,
2013-05-16 03:44:00,54.5,48.8,29.88,SSW,202,0.0,8.3,81,0.00,,,0.00,VWS V14.01,2013-05-16 10:44:00,
2013-05-16 03:49:00,54.5,48.8,29.88,SSE,158,5.8,6.3,81,0.00,,,0.00,VWS V14.01,2013-05-16 10:49:00,
2013-05-16 03:54:00,54.3,49.0,29.88,WNW,292,2.7,3.1,82,0.00,,,0.00,VWS V14.01,2013-05-16 10:54:00,
2013-05-16 04:00:00,54.3,49.0,29.88,WNW,292,2.7,2.7,82,0.00,,,0.00,VWS V14.01,2013-05-16 11:00:00,
2013-05-16 04:05:00,54.3,49.0,29.88,SSW,202,0.0,2.2,82,0.00,,,0.00,VWS V14.01,2013-05-16 11:05:00,
2013-05-16 04:10:00,54.3,49.0,29.88,South,180,3.6,4.9,82,0.00,,,0.00,VWS V14.01,2013-05-16 11:10:00,
2013-05-16 04:15:00,54.3,49.0,29.88,NNW,338,2.2,3.6,82,0.00,,,0.00,VWS V14.01,2013-05-16 11:15:00,
2013-05-16 04:20:00,54.5,49.1,29.88,SW,225,3.1,3.1,82,0.00,,,0.00,VWS V14.01,2013-05-16 11:20:00,
2013-05-16 04:26:00,54.5,49.1,29.88,SSE,158,0.0,3.6,82,0.00,,,0.00,VWS V14.01,2013-05-16 11:26:00,
2013-05-16 04:31:00,54.5,49.1,29.88,West,270,0.0,2.7,82,0.00,,,0.00,VWS V14.01,2013-05-16 11:31:00,
2013-05-16 04:36:00,54.5,49.1,29.88,SSW,202,0.0,2.7,82,0.00,,,0.00,VWS V14.01,2013-05-16 11:36:00,
2013-05-16 04:41:00,54.5,49.1,29.88,West,270,3.6,3.6,82,0.00,,,0.00,VWS V14.01,2013-05-16 11:41:00,
2013-05-16 04:46:00,54.5,49.1,29.88,ENE,68,0.0,3.1,82,0.00,,,0.00,VWS V14.01,2013-05-16 11:46:00,
2013-05-16 04:51:00,54.5,49.1,29.88,SSE,158,3.1,3.1,82,0.00,,,0.00,VWS V14.01,2013-05-16 11:51:00,
2013-05-16 04:57:00,54.3,49.0,29.88,SE,135,3.1,4.9,82,0.00,,,0.00,VWS V14.01,2013-05-16 11:57:00,
2013-05-16 05:02:00,54.3,49.3,29.88,SSW,202,2.2,2.7,83,0.00,,,0.00,VWS V14.01,2013-05-16 12:02:00,
2013-05-16 05:07:00,54.3,49.3,29.88,South,180,6.3,6.3,83,0.00,,,0.00,VWS V14.01,2013-05-16 12:07:00,
2013-05-16 05:12:00,54.5,49.5,29.88,SSW,202,0.0,0.0,83,0.00,,,0.00,VWS V14.01,2013-05-16 12:12:00,
2013-05-16 05:18:00,54.5,49.5,29.88,SSW,202,4.0,4.9,83,0.00,,,0.00,VWS V14.01,2013-05-16 12:18:00,
2013-05-16 05:23:00,54.3,49.3,29.88,SW,225,4.0,5.8,83,0.00,,,0.00,VWS V14.01,2013-05-16 12:23:00,
2013-05-16 05:28:00,54.5,49.5,29.88,SSW,202,3.1,3.6,83,0.00,,,0.00,VWS V14.01,2013-05-16 12:28:00,
2013-05-16 05:33:00,54.3,49.3,29.88,SSW,202,3.1,3.6,83,0.00,,,0.00,VWS V14.01,2013-05-16 12:33:00,
2013-05-16 05:38:00,54.3,49.3,29.88,SSE,158,3.1,4.0,83,0.00,,,0.00,VWS V14.01,2013-05-16 12:38:00,
2013-05-16 05:43:00,54.3,49.3,29.88,WNW,292,2.2,2.2,83,0.00,,,0.00,VWS V14.01,2013-05-16 12:43:00,
2013-05-16 05:48:00,54.3,49.3,29.88,WSW,248,2.7,3.6,83,0.00,,,0.00,VWS V14.01,2013-05-16 12:48:00,
2013-05-16 05:54:00,54.5,49.5,29.88,SSW,202,3.6,4.0,83,0.00,,,0.00,VWS V14.01,2013-05-16 12:54:00,
2013-05-16 05:59:00,54.5,49.1,29.88,West,270,2.7,3.1,82,0.00,,,0.00,VWS V14.01,2013-05-16 12:59:00,
2013-05-16 06:04:00,54.5,49.1,29.88,SSW,202,4.0,4.5,82,0.00,,,0.00,VWS V14.01,2013-05-16 13:04:00,
2013-05-16 06:09:00,54.5,49.1,29.88,SSW,202,3.1,4.9,82,0.00,,,0.00,VWS V14.01,2013-05-16 13:09:00,
2013-05-16 06:14:00,54.5,49.1,29.88,WSW,248,0.0,2.7,82,0.00,,,0.00,VWS V14.01,2013-05-16 13:14:00,
2013-05-16 06:20:00,54.5,49.1,29.88,SSW,202,2.7,3.1,82,0.00,,,0.00,VWS V14.01,2013-05-16 13:20:00,
2013-05-16 06:25:00,54.5,49.1,29.91,SSW,202,3.6,3.6,82,0.00,,,0.00,VWS V14.01,2013-05-16 13:25:00,
2013-05-16 06:30:00,54.5,49.1,29.91,WSW,248,3.6,3.6,82,0.00,,,0.00,VWS V14.01,2013-05-16 13:30:00,
2013-05-16 06:35:00,54.5,49.1,29.91,WSW,248,2.2,4.0,82,0.00,,,0.00,VWS V14.01,2013-05-16 13:35:00,
2013-05-16 06:40:00,54.5,49.1,29.91,WNW,292,3.6,4.0,82,0.00,,,0.00,VWS V14.01,2013-05-16 13:40:00,
2013-05-16 06:45:00,54.5,49.1,29.91,South,180,3.6,4.0,82,0.00,,,0.00,VWS V14.01,2013-05-16 13:45:00,
2013-05-16 06:50:00,54.7,49.3,29.91,SW,225,0.0,3.6,82,0.00,,,0.00,VWS V14.01,2013-05-16 13:50:00,
2013-05-16 06:55:00,54.9,49.5,29.91,SSW,202,2.2,3.1,82,0.00,,,0.00,VWS V14.01,2013-05-16 13:55:00,
2013-05-16 07:00:00,55.0,49.7,29.91,SSW,202,2.7,4.0,82,0.00,,,0.00,VWS V14.01,2013-05-16 14:00:00,
2013-05-16 07:05:00,55.2,49.8,29.91,SSW,202,0.0,6.3,82,0.00,,,0.00,VWS V14.01,2013-05-16 14:05:00,
2013-05-16 07:10:00,55.2,49.5,29.91,SSE,158,3.1,3.6,81,0.00,,,0.00,VWS V14.01,2013-05-16 14:10:00,
2013-05-16 07:16:00,55.4,49.7,29.91,SSE,158,2.2,3.1,81,0.00,,,0.00,VWS V14.01,2013-05-16 14:16:00,
2013-05-16 07:21:00,55.4,49.3,29.91,WSW,248,2.7,3.6,80,0.00,,,0.00,VWS V14.01,2013-05-16 14:21:00,
2013-05-16 07:26:00,55.4,49.3,29.91,SSW,202,5.4,5.8,80,0.00,,,0.00,VWS V14.01,2013-05-16 14:26:00,
2013-05-16 07:31:00,55.6,49.5,29.91,SSW,202,3.6,3.6,80,0.00,,,0.00,VWS V14.01,2013-05-16 14:31:00,
2013-05-16 07:36:00,55.4,49.3,29.91,South,180,5.4,5.4,80,0.00,,,0.00,VWS V14.01,2013-05-16 14:36:00,
2013-05-16 07:42:00,55.4,49.3,29.91,SSW,202,3.1,4.9,80,0.00,,,0.00,VWS V14.01,2013-05-16 14:42:00,
2013-05-16 07:47:00,55.4,49.3,29.91,SW,225,6.3,6.3,80,0.00,,,0.00,VWS V14.01,2013-05-16 14:47:00,
2013-05-16 07:52:00,55.6,49.5,29.91,SSW,202,4.9,4.9,80,0.00,,,0.00,VWS V14.01,2013-05-16 14:52:00,
2013-05-16 07:57:00,55.6,49.5,29.91,SW,225,2.7,2.7,80,0.00,,,0.00,VWS V14.01,2013-05-16 14:57:00,
2013-05-16 08:02:00,55.8,49.7,29.91,SSW,202,3.1,5.4,80,0.00,,,0.00,VWS V14.01,2013-05-16 15:02:00,
2013-05-16 08:07:00,55.8,50.0,29.91,WSW,248,2.7,2.7,81,0.00,,,0.00,VWS V14.01,2013-05-16 15:07:00,
2013-05-16 08:12:00,56.1,50.4,29.91,SE,135,0.0,2.2,81,0.00,,,0.00,VWS V14.01,2013-05-16 15:12:00,
2013-05-16 08:18:00,56.3,50.5,29.91,WSW,248,2.2,4.0,81,0.00,,,0.00,VWS V14.01,2013-05-16 15:18:00,
2013-05-16 08:23:00,56.5,50.7,29.91,SE,135,0.0,2.7,81,0.00,,,0.00,VWS V14.01,2013-05-16 15:23:00,
2013-05-16 08:28:00,56.7,50.9,29.91,WSW,248,2.2,3.6,81,0.00,,,0.00,VWS V14.01,2013-05-16 15:28:00,
2013-05-16 08:33:00,56.8,51.1,29.91,South,180,0.0,0.0,81,0.00,,,0.00,VWS V14.01,2013-05-16 15:33:00,
2013-05-16 08:38:00,57.0,50.9,29.91,ESE,112,2.7,4.0,80,0.00,,,0.00,VWS V14.01,2013-05-16 15:38:00,
2013-05-16 08:43:00,57.4,50.9,29.91,ESE,112,2.2,4.0,79,0.00,,,0.00,VWS V14.01,2013-05-16 15:43:00,
2013-05-16 08:49:00,57.6,51.1,29.91,ESE,112,2.7,7.6,79,0.00,,,0.00,VWS V14.01,2013-05-16 15:49:00,
2013-05-16 08:54:00,57.6,50.4,29.91,WSW,248,4.0,4.9,77,0.00,,,0.00,VWS V14.01,2013-05-16 15:54:00,
2013-05-16 08:59:00,57.9,50.8,29.91,SSE,158,4.9,5.8,77,0.00,,,0.00,VWS V14.01,2013-05-16 15:59:00,
2013-05-16 09:04:00,58.1,50.6,29.91,SSE,158,2.7,2.7,76,0.00,,,0.00,VWS V14.01,2013-05-16 16:04:00,
2013-05-16 09:09:00,58.3,50.4,29.94,ESE,112,2.2,2.2,75,0.00,,,0.00,VWS V14.01,2013-05-16 16:09:00,
2013-05-16 09:14:00,58.5,50.2,29.94,NNE,22,2.2,2.7,74,0.00,,,0.00,VWS V14.01,2013-05-16 16:14:00,
2013-05-16 09:20:00,58.6,50.4,29.94,East,90,2.2,2.7,74,0.00,,,0.00,VWS V14.01,2013-05-16 16:20:00,
2013-05-16 09:25:00,58.8,50.2,29.94,SSE,158,2.2,2.2,73,0.00,,,0.00,VWS V14.01,2013-05-16 16:25:00,
2013-05-16 09:30:00,59.0,50.0,29.94,SSW,202,4.5,4.5,72,0.00,,,0.00,VWS V14.01,2013-05-16 16:30:00,
2013-05-16 09:35:00,58.8,49.5,29.94,SSW,202,3.6,3.6,71,0.00,,,0.00,VWS V14.01,2013-05-16 16:35:00,
2013-05-16 09:40:00,59.0,49.6,29.94,SSW,202,2.7,4.9,71,0.00,,,0.00,VWS V14.01,2013-05-16 16:40:00,
2013-05-16 09:45:00,59.7,49.9,29.94,SSE,158,2.7,4.0,70,0.00,,,0.00,VWS V14.01,2013-05-16 16:45:00,
2013-05-16 09:51:00,60.3,49.7,29.94,SSW,202,6.3,6.3,68,0.00,,,0.00,VWS V14.01,2013-05-16 16:51:00,
2013-05-16 09:56:00,60.6,49.2,29.94,South,180,4.9,4.9,66,0.00,,,0.00,VWS V14.01,2013-05-16 16:56:00,
2013-05-16 10:02:00,61.5,49.2,29.94,SSE,158,3.1,3.1,64,0.00,,,0.00,VWS V14.01,2013-05-16 17:02:00,
2013-05-16 10:07:00,62.2,49.1,29.94,SSW,202,3.6,3.6,62,0.00,,,0.00,VWS V14.01,2013-05-16 17:07:00,
2013-05-16 10:12:00,63.3,48.3,29.94,SSE,158,3.1,3.1,58,0.00,,,0.00,VWS V14.01,2013-05-16 17:12:00,
2013-05-16 10:17:00,64.6,48.1,29.94,South,180,4.9,4.9,55,0.00,,,0.00,VWS V14.01,2013-05-16 17:17:00,
2013-05-16 10:22:00,64.8,47.2,29.94,WSW,248,5.4,5.4,53,0.00,,,0.00,VWS V14.01,2013-05-16 17:22:00,
2013-05-16 10:27:00,64.8,47.2,29.94,North,0,2.7,4.0,53,0.00,,,0.00,VWS V14.01,2013-05-16 17:27:00,
2013-05-16 10:32:00,64.8,46.7,29.94,SSW,202,4.0,4.0,52,0.00,,,0.00,VWS V14.01,2013-05-16 17:32:00,
2013-05-16 10:38:00,63.9,46.4,29.94,WNW,292,3.1,3.6,53,0.00,,,0.00,VWS V14.01,2013-05-16 17:38:00,
2013-05-16 10:43:00,63.9,47.4,29.94,NNE,22,2.7,4.0,55,0.00,,,0.00,VWS V14.01,2013-05-16 17:43:00,
2013-05-16 10:48:00,64.0,47.1,29.94,SSW,202,3.1,4.9,54,0.00,,,0.00,VWS V14.01,2013-05-16 17:48:00,
2013-05-16 10:53:00,64.2,47.2,29.94,ESE,112,2.7,4.0,54,0.00,,,0.00,VWS V14.01,2013-05-16 17:53:00,
2013-05-16 10:58:00,63.9,46.9,29.94,WNW,292,4.0,4.0,54,0.00,,,0.00,VWS V14.01,2013-05-16 17:58:00,
2013-05-16 11:03:00,63.3,46.9,29.94,SSE,158,4.0,4.0,55,0.00,,,0.00,VWS V14.01,2013-05-16 18:03:00,
2013-05-16 11:08:00,63.0,47.0,29.94,West,270,2.2,3.6,56,0.00,,,0.00,VWS V14.01,2013-05-16 18:08:00,
2013-05-16 11:14:00,62.2,46.8,29.94,SW,225,4.9,4.9,57,0.00,,,0.00,VWS V14.01,2013-05-16 18:14:00,
2013-05-16 11:19:00,62.4,47.9,29.94,SSW,202,3.6,3.6,59,0.00,,,0.00,VWS V14.01,2013-05-16 18:19:00,
2013-05-16 11:24:00,61.3,47.3,29.94,South,180,3.6,8.7,60,0.00,,,0.00,VWS V14.01,2013-05-16 18:24:00,
2013-05-16 11:29:00,61.2,48.0,29.94,SSE,158,3.1,6.3,62,0.00,,,0.00,VWS V14.01,2013-05-16 18:29:00,
2013-05-16 11:34:00,60.6,48.0,29.94,West,270,2.2,2.7,63,0.00,,,0.00,VWS V14.01,2013-05-16 18:34:00,
2013-05-16 11:39:00,61.2,48.5,29.94,SSE,158,4.0,7.6,63,0.00,,,0.00,VWS V14.01,2013-05-16 18:39:00,
2013-05-16 11:45:00,61.5,48.8,29.94,NW,315,2.7,5.4,63,0.00,,,0.00,VWS V14.01,2013-05-16 18:45:00,
2013-05-16 11:50:00,61.5,48.4,29.94,SSW,202,4.0,4.5,62,0.00,,,0.00,VWS V14.01,2013-05-16 18:50:00,
2013-05-16 11:55:00,61.3,48.2,29.94,South,180,7.2,7.2,62,0.00,,,0.00,VWS V14.01,2013-05-16 18:55:00,
2013-05-16 12:00:00,61.3,48.7,29.94,SSW,202,4.0,4.0,63,0.00,,,0.00,VWS V14.01,2013-05-16 19:00:00,
2013-05-16 12:05:00,60.6,48.4,29.94,SSW,202,4.0,5.4,64,0.00,,,0.00,VWS V14.01,2013-05-16 19:05:00,
2013-05-16 12:10:00,60.3,48.5,29.94,WSW,248,3.1,4.9,65,0.00,,,0.00,VWS V14.01,2013-05-16 19:10:00,
2013-05-16 12:16:00,60.8,49.4,29.94,SSE,158,3.1,4.9,66,0.00,,,0.00,VWS V14.01,2013-05-16 19:16:00,
2013-05-16 12:21:00,61.9,49.6,29.94,SSW,202,4.9,8.7,64,0.00,,,0.00,VWS V14.01,2013-05-16 19:21:00,
2013-05-16 12:26:00,62.6,49.0,29.94,ESE,112,2.7,5.4,61,0.00,,,0.00,VWS V14.01,2013-05-16 19:26:00,
2013-05-16 12:31:00,63.1,48.6,29.94,WSW,248,2.7,6.3,59,0.00,,,0.00,VWS V14.01,2013-05-16 19:31:00,
2013-05-16 12:36:00,64.0,48.5,29.94,WNW,292,2.7,2.7,57,0.00,,,0.00,VWS V14.01,2013-05-16 19:36:00,
2013-05-16 12:41:00,64.4,47.4,29.94,SSE,158,4.0,5.8,54,0.00,,,0.00,VWS V14.01,2013-05-16 19:41:00,
2013-05-16 12:47:00,65.1,47.6,29.94,ESE,112,2.7,4.9,53,0.00,,,0.00,VWS V14.01,2013-05-16 19:47:00,
2013-05-16 12:52:00,65.5,47.4,29.94,SW,225,4.5,4.5,52,0.00,,,0.00,VWS V14.01,2013-05-16 19:52:00,
2013-05-16 12:57:00,65.7,47.1,29.94,NNW,338,2.7,4.0,51,0.00,,,0.00,VWS V14.01,2013-05-16 19:57:00,
2013-05-16 13:02:00,65.5,46.4,29.94,WSW,248,6.3,8.1,50,0.00,,,0.00,VWS V14.01,2013-05-16 20:02:00,
2013-05-16 13:07:00,64.9,46.4,29.94,SSE,158,5.4,6.3,51,0.00,,,0.00,VWS V14.01,2013-05-16 20:07:00,
2013-05-16 13:13:00,66.0,47.4,29.94,WSW,248,3.6,6.3,51,0.00,,,0.00,VWS V14.01,2013-05-16 20:13:00,
2013-05-16 13:18:00,65.8,46.7,29.94,SSW,202,8.7,8.7,50,0.00,,,0.00,VWS V14.01,2013-05-16 20:18:00,
2013-05-16 13:23:00,65.5,46.4,29.94,SW,225,3.6,3.6,50,0.00,,,0.00,VWS V14.01,2013-05-16 20:23:00,
2013-05-16 13:28:00,66.0,46.3,29.91,WSW,248,5.4,6.7,49,0.00,,,0.00,VWS V14.01,2013-05-16 20:28:00,
2013-05-16 13:33:00,66.4,46.1,29.91,WSW,248,4.0,5.4,48,0.00,,,0.00,VWS V14.01,2013-05-16 20:33:00,
2013-05-16 13:38:00,67.6,46.7,29.91,SSW,202,3.1,5.4,47,0.00,,,0.00,VWS V14.01,2013-05-16 20:38:00,
2013-05-16 13:44:00,68.0,45.9,29.91,SSW,202,6.3,6.3,45,0.00,,,0.00,VWS V14.01,2013-05-16 20:44:00,
2013-05-16 13:49:00,66.6,45.7,29.91,SW,225,4.9,4.9,47,0.00,,,0.00,VWS V14.01,2013-05-16 20:49:00,
2013-05-16 13:54:00,66.6,45.7,29.91,WSW,248,4.9,9.6,47,0.00,,,0.00,VWS V14.01,2013-05-16 20:54:00,
2013-05-16 14:00:00,65.8,45.6,29.91,NW,315,5.4,8.1,48,0.00,,,0.00,VWS V14.01,2013-05-16 21:00:00,
2013-05-16 14:05:00,65.3,45.7,29.91,SSW,202,2.7,4.9,49,0.00,,,0.00,VWS V14.01,2013-05-16 21:05:00,
2013-05-16 14:10:00,65.3,45.7,29.94,SSW,202,2.7,5.8,49,0.00,,,0.00,VWS V14.01,2013-05-16 21:10:00,
2013-05-16 14:16:00,64.4,45.4,29.94,NNE,22,2.7,4.0,50,0.00,,,0.00,VWS V14.01,2013-05-16 21:16:00,
2013-05-16 14:21:00,65.1,45.5,29.94,SSE,158,3.6,3.6,49,0.00,,,0.00,VWS V14.01,2013-05-16 21:21:00,
2013-05-16 14:26:00,65.8,45.6,29.91,South,180,5.4,5.4,48,0.00,,,0.00,VWS V14.01,2013-05-16 21:26:00,
2013-05-16 14:31:00,65.7,45.5,29.91,South,180,4.0,5.4,48,0.00,,,0.00,VWS V14.01,2013-05-16 21:31:00,
2013-05-16 14:36:00,65.7,45.5,29.91,SSE,158,3.6,5.8,48,0.00,,,0.00,VWS V14.01,2013-05-16 21:36:00,
2013-05-16 14:41:00,65.5,45.3,29.91,WSW,248,3.6,6.3,48,0.00,,,0.00,VWS V14.01,2013-05-16 21:41:00,
2013-05-16 14:46:00,65.8,45.6,29.91,SSE,158,4.9,5.8,48,0.00,,,0.00,VWS V14.01,2013-05-16 21:46:00,
2013-05-16 14:52:00,66.0,45.2,29.91,SE,135,8.3,8.3,47,0.00,,,0.00,VWS V14.01,2013-05-16 21:52:00,
2013-05-16 14:57:00,65.5,44.7,29.91,WSW,248,2.7,3.6,47,0.00,,,0.00,VWS V14.01,2013-05-16 21:57:00,
2013-05-16 15:02:00,65.5,44.2,29.91,SSW,202,2.2,5.8,46,0.00,,,0.00,VWS V14.01,2013-05-16 22:02:00,
2013-05-16 15:07:00,65.7,44.3,29.91,SSW,202,8.1,8.1,46,0.00,,,0.00,VWS V14.01,2013-05-16 22:07:00,
2013-05-16 15:13:00,65.3,43.4,29.91,South,180,3.6,4.0,45,0.00,,,0.00,VWS V14.01,2013-05-16 22:13:00,
2013-05-16 15:18:00,65.7,43.2,29.91,ESE,112,3.1,4.0,44,0.00,,,0.00,VWS V14.01,2013-05-16 22:18:00,
2013-05-16 15:23:00,66.2,42.5,29.91,ESE,112,3.6,4.0,42,0.00,,,0.00,VWS V14.01,2013-05-16 22:23:00,
2013-05-16 15:29:00,66.9,41.8,29.91,SSW,202,5.4,5.4,40,0.00,,,0.00,VWS V14.01,2013-05-16 22:29:00,
2013-05-16 15:34:00,67.1,42.6,29.91,SSE,158,2.2,2.7,41,0.00,,,0.00,VWS V14.01,2013-05-16 22:34:00,
2013-05-16 15:39:00,68.2,42.3,29.91,SSW,202,4.9,4.9,39,0.00,,,0.00,VWS V14.01,2013-05-16 22:39:00,
2013-05-16 15:45:00,67.1,41.3,29.91,East,90,8.3,8.3,39,0.00,,,0.00,VWS V14.01,2013-05-16 22:45:00,
2013-05-16 15:50:00,67.3,42.2,29.91,SSE,158,0.0,3.1,40,0.00,,,0.00,VWS V14.01,2013-05-16 22:50:00,
2013-05-16 15:55:00,68.2,41.6,29.91,NE,45,2.7,3.6,38,0.00,,,0.00,VWS V14.01,2013-05-16 22:55:00,
2013-05-16 16:00:00,68.5,42.0,29.91,ENE,68,3.1,4.9,38,0.00,,,0.00,VWS V14.01,2013-05-16 23:00:00,
2013-05-16 16:05:00,68.5,42.0,29.91,SSW,202,4.0,4.0,38,0.00,,,0.00,VWS V14.01,2013-05-16 23:05:00,
2013-05-16 16:10:00,67.6,41.8,29.91,ENE,68,0.0,2.2,39,0.00,,,0.00,VWS V14.01,2013-05-16 23:10:00,
2013-05-16 16:15:00,67.8,42.0,29.91,SSW,202,3.6,4.0,39,0.00,,,0.00,VWS V14.01,2013-05-16 23:15:00,
2013-05-16 16:21:00,67.3,41.5,29.91,ESE,112,5.8,6.3,39,0.00,,,0.00,VWS V14.01,2013-05-16 23:21:00,
2013-05-16 16:26:00,66.6,41.5,29.91,SSW,202,5.8,5.8,40,0.00,,,0.00,VWS V14.01,2013-05-16 23:26:00,
2013-05-16 16:31:00,66.6,42.2,29.91,WNW,292,2.7,4.0,41,0.00,,,0.00,VWS V14.01,2013-05-16 23:31:00,
2013-05-16 16:36:00,66.6,42.2,29.91,ESE,112,3.6,4.0,41,0.00,,,0.00,VWS V14.01,2013-05-16 23:36:00,
2013-05-16 16:41:00,66.9,42.5,29.91,West,270,7.2,7.2,41,0.00,,,0.00,VWS V14.01,2013-05-16 23:41:00,
2013-05-16 16:47:00,66.4,42.0,29.91,ENE,68,3.6,4.0,41,0.00,,,0.00,VWS V14.01,2013-05-16 23:47:00,
2013-05-16 16:52:00,66.4,42.0,29.91,SSW,202,3.1,3.6,41,0.00,,,0.00,VWS V14.01,2013-05-16 23:52:00,
2013-05-16 16:57:00,66.0,41.7,29.91,ENE,68,4.0,5.4,41,0.00,,,0.00,VWS V14.01,2013-05-16 23:57:00,
2013-05-16 17:02:00,65.5,41.2,29.91,ESE,112,2.7,6.3,41,0.00,,,0.00,VWS V14.01,2013-05-17 00:02:00,
2013-05-16 17:07:00,65.5,41.2,29.91,SSE,158,4.0,7.6,41,0.00,,,0.00,VWS V14.01,2013-05-17 00:07:00,
2013-05-16 17:13:00,65.3,41.6,29.91,NNE,22,3.6,4.0,42,0.00,,,0.00,VWS V14.01,2013-05-17 00:13:00,
2013-05-16 17:18:00,63.7,41.4,29.91,NE,45,2.7,2.7,44,0.00,,,0.00,VWS V14.01,2013-05-17 00:18:00,
2013-05-16 17:23:00,63.5,41.8,29.91,ENE,68,4.0,6.3,45,0.00,,,0.00,VWS V14.01,2013-05-17 00:23:00,
2013-05-16 17:28:00,63.9,42.1,29.91,West,270,3.6,4.9,45,0.00,,,0.00,VWS V14.01,2013-05-17 00:28:00,
2013-05-16 17:33:00,64.2,42.5,29.91,SSE,158,3.6,4.5,45,0.00,,,0.00,VWS V14.01,2013-05-17 00:33:00,
2013-05-16 17:39:00,63.3,42.2,29.88,South,180,4.9,5.8,46,0.00,,,0.00,VWS V14.01,2013-05-17 00:39:00,
2013-05-16 17:44:00,63.0,41.9,29.88,NE,45,2.7,4.9,46,0.00,,,0.00,VWS V14.01,2013-05-17 00:44:00,
2013-05-16 17:49:00,62.2,42.3,29.88,East,90,0.0,3.1,48,0.00,,,0.00,VWS V14.01,2013-05-17 00:49:00,
2013-05-16 17:54:00,62.4,42.5,29.88,SSE,158,3.6,4.0,48,0.00,,,0.00,VWS V14.01,2013-05-17 00:54:00,
2013-05-16 17:59:00,62.1,42.2,29.88,NNW,338,4.0,5.4,48,0.00,,,0.00,VWS V14.01,2013-05-17 00:59:00,
2013-05-16 18:05:00,61.0,42.2,29.88,NNE,22,7.6,7.6,50,0.00,,,0.00,VWS V14.01,2013-05-17 01:05:00,
2013-05-16 18:10:00,60.1,42.4,29.88,SSW,202,2.7,2.7,52,0.00,,,0.00,VWS V14.01,2013-05-17 01:10:00,
2013-05-16 18:15:00,59.9,43.2,29.88,WSW,248,4.5,6.7,54,0.00,,,0.00,VWS V14.01,2013-05-17 01:15:00,
2013-05-16 18:20:00,59.5,43.4,29.88,SSE,158,3.1,8.7,55,0.00,,,0.00,VWS V14.01,2013-05-17 01:20:00,
2013-05-16 18:25:00,59.4,44.1,29.88,ENE,68,3.6,8.7,57,0.00,,,0.00,VWS V14.01,2013-05-17 01:25:00,
2013-05-16 18:30:00,59.2,44.4,29.88,NE,45,2.7,5.8,58,0.00,,,0.00,VWS V14.01,2013-05-17 01:30:00,
2013-05-16 18:36:00,59.2,44.4,29.88,WNW,292,2.7,4.0,58,0.00,,,0.00,VWS V14.01,2013-05-17 01:36:00,
2013-05-16 18:41:00,59.0,44.3,29.91,SSE,158,4.0,6.3,58,0.00,,,0.00,VWS V14.01,2013-05-17 01:41:00,
2013-05-16 18:46:00,58.8,45.0,29.91,WNW,292,2.2,8.3,60,0.00,,,0.00,VWS V14.01,2013-05-17 01:46:00,
2013-05-16 18:51:00,58.3,45.3,29.91,West,270,4.0,8.3,62,0.00,,,0.00,VWS V14.01,2013-05-17 01:51:00,
2013-05-16 18:56:00,58.1,46.0,29.88,NNE,22,3.1,6.3,64,0.00,,,0.00,VWS V14.01,2013-05-17 01:56:00,
2013-05-16 19:02:00,57.9,46.2,29.88,South,180,8.1,8.3,65,0.00,,,0.00,VWS V14.01,2013-05-17 02:02:00,
2013-05-16 19:07:00,57.6,46.3,29.88,SSE,158,5.8,5.8,66,0.00,,,0.00,VWS V14.01,2013-05-17 02:07:00,
2013-05-16 19:12:00,57.4,46.5,29.88,SSE,158,4.9,4.9,67,0.00,,,0.00,VWS V14.01,2013-05-17 02:12:00,
2013-05-16 19:17:00,57.2,46.8,29.88,SE,135,2.7,3.1,68,0.00,,,0.00,VWS V14.01,2013-05-17 02:17:00,
2013-05-16 19:22:00,57.6,47.1,29.88,NE,45,3.1,3.1,68,0.00,,,0.00,VWS V14.01,2013-05-17 02:22:00,
2013-05-16 19:28:00,57.7,47.3,29.88,ESE,112,2.2,3.6,68,0.00,,,0.00,VWS V14.01,2013-05-17 02:28:00,
2013-05-16 19:33:00,57.6,47.1,29.88,SSE,158,2.2,2.7,68,0.00,,,0.00,VWS V14.01,2013-05-17 02:33:00,
2013-05-16 19:38:00,57.6,47.1,29.88,NE,45,3.6,3.6,68,0.00,,,0.00,VWS V14.01,2013-05-17 02:38:00,
2013-05-16 19:43:00,57.4,46.9,29.88,SSW,202,3.1,3.1,68,0.00,,,0.00,VWS V14.01,2013-05-17 02:43:00,
2013-05-16 19:49:00,57.4,47.3,29.88,North,0,3.1,3.1,69,0.00,,,0.00,VWS V14.01,2013-05-17 02:49:00,
2013-05-16 19:54:00,57.2,46.8,29.91,ENE,68,2.7,4.0,68,0.00,,,0.00,VWS V14.01,2013-05-17 02:54:00,
2013-05-16 19:59:00,57.0,47.0,29.91,ENE,68,3.6,4.9,69,0.00,,,0.00,VWS V14.01,2013-05-17 02:59:00,
2013-05-16 20:04:00,56.7,46.6,29.91,SSW,202,3.1,3.1,69,0.00,,,0.00,VWS V14.01,2013-05-17 03:04:00,
2013-05-16 20:10:00,56.7,47.0,29.88,SW,225,3.1,4.5,70,0.00,,,0.00,VWS V14.01,2013-05-17 03:10:00,
2013-05-16 20:15:00,56.7,47.0,29.88,SSW,202,4.0,4.9,70,0.00,,,0.00,VWS V14.01,2013-05-17 03:15:00,
2013-05-16 20:20:00,56.5,46.8,29.88,SSW,202,6.3,6.3,70,0.00,,,0.00,VWS V14.01,2013-05-17 03:20:00,
2013-05-16 20:25:00,56.5,46.8,29.88,SE,135,2.7,4.0,70,0.00,,,0.00,VWS V14.01,2013-05-17 03:25:00,
2013-05-16 20:30:00,56.5,46.8,29.88,NNW,338,4.0,4.9,70,0.00,,,0.00,VWS V14.01,2013-05-17 03:30:00,
2013-05-16 20:36:00,56.3,46.7,29.88,NNE,22,3.6,4.0,70,0.00,,,0.00,VWS V14.01,2013-05-17 03:36:00,
2013-05-16 20:41:00,56.3,46.7,29.88,WSW,248,2.7,6.7,70,0.00,,,0.00,VWS V14.01,2013-05-17 03:41:00,
2013-05-16 20:46:00,56.3,46.7,29.88,SSW,202,3.6,4.5,70,0.00,,,0.00,VWS V14.01,2013-05-17 03:46:00,
2013-05-16 20:52:00,56.3,46.3,29.88,SSW,202,5.4,5.4,69,0.00,,,0.00,VWS V14.01,2013-05-17 03:52:00,
2013-05-16 20:57:00,56.3,46.3,29.88,NW,315,3.1,7.2,69,0.00,,,0.00,VWS V14.01,2013-05-17 03:57:00,
2013-05-16 21:01:00,56.3,46.7,29.88,WSW,248,2.7,4.9,70,0.00,,,0.00,VWS V14.01,2013-05-17 04:01:00,
2013-05-16 21:02:00,56.3,46.7,29.88,SSW,202,3.1,6.3,70,0.00,,,0.00,VWS V14.01,2013-05-17 04:02:00,
2013-05-16 21:07:00,56.1,46.5,29.88,ENE,68,3.1,4.5,70,0.00,,,0.00,VWS V14.01,2013-05-17 04:07:00,
2013-05-16 21:13:00,56.1,46.5,29.88,South,180,8.7,10.1,70,0.00,,,0.00,VWS V14.01,2013-05-17 04:13:00,
2013-05-16 21:18:00,55.9,46.3,29.88,WSW,248,4.0,7.6,70,0.00,,,0.00,VWS V14.01,2013-05-17 04:18:00,
2013-05-16 21:23:00,55.8,46.5,29.88,ESE,112,0.0,3.6,71,0.00,,,0.00,VWS V14.01,2013-05-17 04:23:00,
2013-05-16 21:28:00,55.8,46.5,29.88,WSW,248,4.0,5.8,71,0.00,,,0.00,VWS V14.01,2013-05-17 04:28:00,
2013-05-16 21:33:00,55.6,46.3,29.88,SW,225,4.0,4.0,71,0.00,,,0.00,VWS V14.01,2013-05-17 04:33:00,
2013-05-16 21:39:00,55.6,46.3,29.88,NNE,22,3.1,5.4,71,0.00,,,0.00,VWS V14.01,2013-05-17 04:39:00,
2013-05-16 21:44:00,55.4,46.2,29.88,ENE,68,0.0,4.9,71,0.00,,,0.00,VWS V14.01,2013-05-17 04:44:00,
2013-05-16 21:49:00,55.4,46.5,29.88,WNW,292,3.1,3.1,72,0.00,,,0.00,VWS V14.01,2013-05-17 04:49:00,
2013-05-16 21:54:00,55.4,46.5,29.91,NNW,338,2.7,2.7,72,0.00,,,0.00,VWS V14.01,2013-05-17 04:54:00,
2013-05-16 21:59:00,55.2,46.4,29.91,NNE,22,2.7,3.1,72,0.00,,,0.00,VWS V14.01,2013-05-17 04:59:00,
2013-05-16 22:04:00,55.2,46.4,29.91,SSE,158,0.0,2.7,72,0.00,,,0.00,VWS V14.01,2013-05-17 05:04:00,
2013-05-16 22:10:00,55.0,46.2,29.91,South,180,2.7,3.6,72,0.00,,,0.00,VWS V14.01,2013-05-17 05:10:00,
2013-05-16 22:15:00,55.0,46.5,29.91,SSW,202,2.7,5.4,73,0.00,,,0.00,VWS V14.01,2013-05-17 05:15:00,
2013-05-16 22:20:00,54.9,46.4,29.91,South,180,3.1,3.1,73,0.00,,,0.00,VWS V14.01,2013-05-17 05:20:00,
2013-05-16 22:25:00,55.0,46.5,29.91,SSE,158,3.6,4.0,73,0.00,,,0.00,VWS V14.01,2013-05-17 05:25:00,
2013-05-16 22:30:00,54.9,46.4,29.91,West,270,2.7,3.1,73,0.00,,,0.00,VWS V14.01,2013-05-17 05:30:00,
2013-05-16 22:35:00,55.0,46.5,29.91,NE,45,3.1,4.0,73,0.00,,,0.00,VWS V14.01,2013-05-17 05:35:00,
2013-05-16 22:40:00,54.9,46.4,29.91,West,270,2.7,4.0,73,0.00,,,0.00,VWS V14.01,2013-05-17 05:40:00,
2013-05-16 22:45:00,55.0,46.2,29.91,SSE,158,3.1,4.0,72,0.00,,,0.00,VWS V14.01,2013-05-17 05:45:00,
2013-05-16 22:51:00,55.0,46.2,29.91,East,90,0.0,3.1,72,0.00,,,0.00,VWS V14.01,2013-05-17 05:51:00,
2013-05-16 22:56:00,55.0,46.2,29.91,WNW,292,3.1,3.1,72,0.00,,,0.00,VWS V14.01,2013-05-17 05:56:00,
2013-05-16 23:01:00,55.0,46.2,29.91,ENE,68,3.1,3.1,72,0.00,,,0.00,VWS V14.01,2013-05-17 06:01:00,
2013-05-16 23:06:00,54.9,46.0,29.91,WNW,292,0.0,7.2,72,0.00,,,0.00,VWS V14.01,2013-05-17 06:06:00,
2013-05-16 23:11:00,54.7,45.8,29.91,South,180,0.0,2.7,72,0.00,,,0.00,VWS V14.01,2013-05-17 06:11:00,
2013-05-16 23:17:00,54.7,45.8,29.91,SSE,158,2.2,3.6,72,0.00,,,0.00,VWS V14.01,2013-05-17 06:17:00,
2013-05-16 23:22:00,54.9,46.0,29.91,South,180,0.0,2.2,72,0.00,,,0.00,VWS V14.01,2013-05-17 06:22:00,
2013-05-16 23:27:00,54.7,45.8,29.91,SE,135,0.0,0.0,72,0.00,,,0.00,VWS V14.01,2013-05-17 06:27:00,
2013-05-16 23:32:00,54.9,46.0,29.91,West,270,0.0,3.1,72,0.00,,,0.00,VWS V14.01,2013-05-17 06:32:00,
2013-05-16 23:37:00,54.9,46.0,29.91,NNE,22,4.0,5.8,72,0.00,,,0.00,VWS V14.01,2013-05-17 06:37:00,
2013-05-16 23:42:00,54.9,46.0,29.91,SSW,202,2.7,4.0,72,0.00,,,0.00,VWS V14.01,2013-05-17 06:42:00,
2013-05-16 23:47:00,54.7,46.2,29.91,NNE,22,0.0,0.0,73,0.00,,,0.00,VWS V14.01,2013-05-17 06:47:00,
2013-05-16 23:52:00,54.7,46.2,29.91,WSW,248,0.0,3.6,73,0.00,,,0.00,VWS V14.01,2013-05-17 06:52:00,
2013-05-16 23:57:00,54.7,46.2,29.91,ESE,112,0.0,3.1,73,0.00,,,0.00,VWS V14.01,2013-05-17 06:57:00,